createdAt,value
2017-04-11T00:00:31.909Z,10.09
2017-04-11T00:01:41.120Z,10.05
2017-04-11T00:02:50.076Z,10.07
2017-04-11T00:03:59.036Z,10.08
2017-04-11T00:05:07.990Z,10.09
2017-04-11T00:06:17.269Z,10.04
2017-04-11T00:07:26.467Z,9.87
2017-04-11T00:08:35.418Z,9.89
2017-04-11T00:09:44.373Z,9.79
2017-04-11T00:10:53.412Z,9.79
2017-04-11T00:12:02.361Z,9.76
2017-04-11T00:13:11.567Z,9.86
2017-04-11T00:14:20.523Z,9.81
2017-04-11T00:15:29.566Z,9.83
2017-04-11T00:16:38.843Z,9.81
2017-04-11T00:17:47.886Z,9.89
2017-04-11T00:18:57.097Z,9.87
2017-04-11T00:20:06.065Z,9.86
2017-04-11T00:21:15.339Z,9.89
2017-04-11T00:22:24.292Z,9.93
2017-04-11T00:23:33.335Z,9.89
2017-04-11T00:24:42.534Z,9.91
2017-04-11T00:25:51.486Z,9.86
2017-04-11T00:27:00.438Z,9.87
2017-04-11T00:28:09.392Z,9.86
2017-04-11T00:29:18.357Z,9.84
2017-04-11T00:30:27.559Z,9.78
2017-04-11T00:31:36.519Z,9.71
2017-04-11T00:32:45.480Z,9.72
2017-04-11T00:33:54.433Z,9.61
2017-04-11T00:35:03.384Z,9.69
2017-04-11T00:36:12.593Z,9.61
2017-04-11T00:37:21.545Z,9.65
2017-04-11T00:38:30.494Z,9.65
2017-04-11T00:39:39.444Z,9.65
2017-04-11T00:40:48.717Z,9.71
2017-04-11T00:41:57.917Z,9.68
2017-04-11T00:43:06.876Z,9.65
2017-04-11T00:44:15.917Z,9.5
2017-04-11T00:45:24.871Z,9.54
2017-04-11T00:46:33.823Z,9.51
2017-04-11T00:47:43.025Z,9.46
2017-04-11T00:48:51.989Z,9.43
2017-04-11T00:50:00.951Z,9.47
2017-04-11T00:51:09.902Z,9.58
2017-04-11T00:52:18.852Z,9.51
2017-04-11T00:53:28.104Z,9.54
2017-04-11T00:54:37.055Z,9.61
2017-04-11T00:55:46.011Z,9.6
2017-04-11T00:56:54.969Z,9.68
2017-04-11T00:58:03.919Z,9.64
2017-04-11T00:59:13.122Z,9.6
2017-04-11T01:00:22.075Z,9.64
2017-04-11T01:01:31.028Z,9.54
2017-04-11T01:02:39.975Z,9.51
2017-04-11T01:03:48.929Z,9.51
2017-04-11T01:04:58.136Z,9.5
2017-04-11T01:06:07.088Z,9.47
2017-04-11T01:07:16.129Z,9.43
2017-04-11T01:08:25.077Z,9.43
2017-04-11T01:09:34.029Z,9.4
2017-04-11T01:10:43.228Z,9.39
2017-04-11T01:11:52.180Z,9.39
2017-04-11T01:13:01.137Z,9.33
2017-04-11T01:14:10.098Z,9.31
2017-04-11T01:15:19.052Z,9.31
2017-04-11T01:16:28.252Z,9.33
2017-04-11T01:17:37.303Z,9.28
2017-04-11T01:18:46.260Z,9.21
2017-04-11T01:19:55.219Z,9.24
2017-04-11T01:21:04.265Z,9.14
2017-04-11T01:22:13.790Z,9.21
2017-04-11T01:23:22.746Z,9.24
2017-04-11T01:24:31.711Z,9.21
2017-04-11T01:25:40.751Z,9.15
2017-04-11T01:26:49.712Z,9.24
2017-04-11T01:27:58.925Z,9.14
2017-04-11T01:29:07.892Z,9.17
2017-04-11T01:30:16.846Z,9.18
2017-04-11T01:31:25.797Z,9.15
2017-04-11T01:32:34.747Z,9.23
2017-04-11T01:33:44.033Z,9.15
2017-04-11T01:34:52.983Z,9.18
2017-04-11T01:36:01.939Z,9.14
2017-04-11T01:37:10.903Z,9.18
2017-04-11T01:38:19.861Z,9.14
2017-04-11T01:39:29.072Z,9.13
2017-04-11T01:40:38.110Z,9.1
2017-04-11T01:41:47.067Z,8.98
2017-04-11T01:42:56.022Z,8.86
2017-04-11T01:44:04.971Z,8.91
2017-04-11T01:45:14.431Z,8.92
2017-04-11T01:46:23.381Z,8.94
2017-04-11T01:47:32.422Z,8.84
2017-04-11T01:48:41.459Z,8.94
2017-04-11T01:49:50.405Z,8.96
2017-04-11T01:50:59.612Z,8.89
2017-04-11T01:52:08.570Z,8.94
2017-04-11T01:53:17.524Z,8.94
2017-04-11T01:54:26.480Z,8.84
2017-04-11T01:55:35.520Z,8.83
2017-04-11T01:56:44.718Z,8.81
2017-04-11T01:57:53.679Z,8.8
2017-04-11T01:59:02.638Z,8.8
2017-04-11T02:00:11.595Z,8.77
2017-04-11T02:01:20.552Z,8.86
2017-04-11T02:02:29.759Z,8.84
2017-04-11T02:03:38.717Z,8.79
2017-04-11T02:04:47.677Z,8.77
2017-04-11T02:05:56.632Z,8.86
2017-04-11T02:07:05.669Z,8.84
2017-04-11T02:08:14.872Z,8.84
2017-04-11T02:09:23.827Z,8.91
2017-04-11T02:10:32.782Z,8.98
2017-04-11T02:11:41.738Z,8.94
2017-04-11T02:12:50.730Z,8.94
2017-04-11T02:13:59.934Z,8.84
2017-04-11T02:15:08.882Z,8.92
2017-04-11T02:16:17.829Z,8.87
2017-04-11T02:17:26.776Z,8.8
2017-04-11T02:18:35.813Z,8.77
2017-04-11T02:19:45.015Z,8.77
2017-04-11T02:20:53.965Z,8.71
2017-04-11T02:22:02.917Z,8.8
2017-04-11T02:23:11.873Z,8.74
2017-04-11T02:24:20.837Z,8.63
2017-04-11T02:25:30.091Z,8.73
2017-04-11T02:26:39.049Z,8.7
2017-04-11T02:27:48.091Z,8.61
2017-04-11T02:28:57.135Z,8.62
2017-04-11T02:30:06.105Z,8.58
2017-04-11T02:31:15.632Z,8.63
2017-04-11T02:32:24.715Z,8.59
2017-04-11T02:33:33.673Z,8.58
2017-04-11T02:34:42.672Z,8.55
2017-04-11T02:35:51.631Z,8.52
2017-04-11T02:37:00.831Z,8.55
2017-04-11T02:38:09.785Z,8.53
2017-04-11T02:39:18.742Z,8.61
2017-04-11T02:40:27.701Z,8.65
2017-04-11T02:41:36.659Z,8.52
2017-04-11T02:42:45.859Z,8.5
2017-04-11T02:43:54.902Z,8.5
2017-04-11T02:45:03.859Z,8.59
2017-04-11T02:46:13.145Z,8.61
2017-04-11T02:47:22.098Z,8.62
2017-04-11T02:48:31.394Z,8.63
2017-04-11T02:49:40.349Z,8.61
2017-04-11T02:50:49.300Z,8.63
2017-04-11T02:51:58.339Z,8.65
2017-04-11T02:53:07.287Z,8.68
2017-04-11T02:54:16.494Z,8.63
2017-04-11T02:55:25.444Z,8.66
2017-04-11T02:56:34.773Z,8.74
2017-04-11T02:57:43.732Z,8.8
2017-04-11T02:58:52.682Z,8.74
2017-04-11T03:00:01.896Z,8.71
2017-04-11T03:01:10.847Z,8.81
2017-04-11T03:02:19.802Z,8.81
2017-04-11T03:03:28.843Z,8.74
2017-04-11T03:04:37.805Z,8.77
2017-04-11T03:05:47.012Z,8.81
2017-04-11T03:06:56.289Z,8.8
2017-04-11T03:08:05.335Z,8.86
2017-04-11T03:09:14.292Z,8.84
2017-04-11T03:10:23.244Z,8.8
2017-04-11T03:11:32.444Z,8.77
2017-04-11T03:12:41.806Z,8.79
2017-04-11T03:13:50.763Z,8.71
2017-04-11T03:14:59.722Z,8.84
2017-04-11T03:16:08.680Z,8.84
2017-04-11T03:17:17.973Z,8.79
2017-04-11T03:18:26.933Z,8.81
2017-04-11T03:19:35.892Z,8.8
2017-04-11T03:20:44.932Z,8.87
2017-04-11T03:21:53.892Z,8.8
2017-04-11T03:23:03.097Z,8.79
2017-04-11T03:24:12.053Z,8.77
2017-04-11T03:25:21.011Z,8.73
2017-04-11T03:26:29.965Z,8.7
2017-04-11T03:27:38.922Z,8.68
2017-04-11T03:28:48.132Z,8.61
2017-04-11T03:29:57.088Z,8.56
2017-04-11T03:31:06.064Z,8.65
2017-04-11T03:32:15.662Z,8.62
2017-04-11T03:33:24.619Z,8.62
2017-04-11T03:34:34.152Z,8.47
2017-04-11T03:35:43.102Z,8.55
2017-04-11T03:36:52.146Z,8.5
2017-04-11T03:38:01.100Z,8.38
2017-04-11T03:39:10.148Z,8.43
2017-04-11T03:40:19.351Z,8.38
2017-04-11T03:41:28.301Z,8.26
2017-04-11T03:42:37.340Z,8.3
2017-04-11T03:43:46.376Z,8.34
2017-04-11T03:44:55.337Z,8.29
2017-04-11T03:46:04.541Z,8.38
2017-04-11T03:47:13.489Z,8.3
2017-04-11T03:48:22.446Z,8.19
2017-04-11T03:49:31.401Z,8.25
2017-04-11T03:50:40.357Z,8.18
2017-04-11T03:51:49.565Z,8.25
2017-04-11T03:52:58.516Z,8.3
2017-04-11T03:54:07.464Z,8.26
2017-04-11T03:55:16.420Z,8.29
2017-04-11T03:56:25.368Z,8.28
2017-04-11T03:57:34.664Z,8.25
2017-04-11T03:58:43.612Z,8.16
2017-04-11T03:59:52.560Z,8.15
2017-04-11T04:01:01.516Z,8.2
2017-04-11T04:02:10.466Z,8.16
2017-04-11T04:03:19.675Z,8.16
2017-04-11T04:04:28.627Z,8.1
2017-04-11T04:05:37.587Z,8.05
2017-04-11T04:06:46.535Z,8.08
2017-04-11T04:07:55.488Z,8.1
2017-04-11T04:09:04.701Z,8.04
2017-04-11T04:10:13.651Z,8.04
2017-04-11T04:11:22.602Z,7.97
2017-04-11T04:12:31.641Z,8.04
2017-04-11T04:13:40.596Z,7.97
2017-04-11T04:14:49.809Z,7.97
2017-04-11T04:15:58.774Z,7.97
2017-04-11T04:17:07.728Z,8.01
2017-04-11T04:18:16.768Z,8.02
2017-04-11T04:19:25.721Z,8.04
2017-04-11T04:20:35.248Z,8.02
2017-04-11T04:21:44.293Z,8.01
2017-04-11T04:22:53.335Z,7.95
2017-04-11T04:24:02.286Z,7.98
2017-04-11T04:25:11.331Z,7.98
2017-04-11T04:26:20.538Z,7.92
2017-04-11T04:27:29.488Z,7.95
2017-04-11T04:28:38.442Z,7.92
2017-04-11T04:29:47.406Z,7.93
2017-04-11T04:30:56.361Z,7.97
2017-04-11T04:32:05.621Z,7.85
2017-04-11T04:33:14.573Z,7.86
2017-04-11T04:34:23.611Z,7.89
2017-04-11T04:35:32.560Z,7.85
2017-04-11T04:36:41.508Z,7.83
2017-04-11T04:37:50.713Z,7.82
2017-04-11T04:38:59.752Z,7.79
2017-04-11T04:40:08.708Z,7.75
2017-04-11T04:41:17.995Z,7.72
2017-04-11T04:42:27.032Z,7.72
2017-04-11T04:43:36.232Z,7.69
2017-04-11T04:44:45.353Z,7.68
2017-04-11T04:45:54.307Z,7.72
2017-04-11T04:47:03.262Z,7.74
2017-04-11T04:48:12.246Z,7.77
2017-04-11T04:49:21.540Z,7.64
2017-04-11T04:50:30.489Z,7.67
2017-04-11T04:51:39.438Z,7.69
2017-04-11T04:52:48.477Z,7.69
2017-04-11T04:53:57.478Z,7.67
2017-04-11T04:55:06.730Z,7.71
2017-04-11T04:56:15.679Z,7.69
2017-04-11T04:57:24.628Z,7.72
2017-04-11T04:58:33.576Z,7.68
2017-04-11T04:59:42.534Z,7.69
2017-04-11T05:00:51.868Z,7.67
2017-04-11T05:02:00.924Z,7.68
2017-04-11T05:03:09.881Z,7.74
2017-04-11T05:04:19.004Z,7.72
2017-04-11T05:05:27.954Z,7.71
2017-04-11T05:06:37.161Z,7.75
2017-04-11T05:07:46.117Z,7.74
2017-04-11T05:08:55.077Z,7.77
2017-04-11T05:10:04.037Z,7.85
2017-04-11T05:11:12.986Z,7.87
2017-04-11T05:12:22.240Z,7.92
2017-04-11T05:13:31.192Z,7.97
2017-04-11T05:14:40.159Z,7.93
2017-04-11T05:15:49.374Z,7.98
2017-04-11T05:16:58.328Z,7.98
2017-04-11T05:18:07.728Z,7.98
2017-04-11T05:19:17.328Z,8.07
2017-04-11T05:20:26.573Z,8.01
2017-04-11T05:21:36.397Z,7.93
2017-04-11T05:22:45.446Z,8.05
2017-04-11T05:23:54.781Z,8.1
2017-04-11T05:25:03.834Z,8.07
2017-04-11T05:26:13.272Z,8.1
2017-04-11T05:27:23.012Z,8.1
2017-04-11T05:28:32.046Z,8.15
2017-04-11T05:29:41.300Z,8.1
2017-04-11T05:30:50.347Z,8.18
2017-04-11T05:31:59.334Z,8.23
2017-04-11T05:33:08.434Z,8.26
2017-04-11T05:34:17.425Z,8.3
2017-04-11T05:35:26.641Z,8.2
2017-04-11T05:36:35.688Z,8.28
2017-04-11T05:37:44.637Z,8.22
2017-04-11T05:38:53.676Z,8.3
2017-04-11T05:40:02.627Z,8.34
2017-04-11T05:41:12.207Z,8.34
2017-04-11T05:42:21.253Z,8.38
2017-04-11T05:43:30.369Z,8.43
2017-04-11T05:44:39.411Z,8.45
2017-04-11T05:45:48.359Z,8.4
2017-04-11T05:46:57.652Z,8.38
2017-04-11T05:48:06.603Z,8.44
2017-04-11T05:49:15.559Z,8.52
2017-04-11T05:50:24.511Z,8.5
2017-04-11T05:51:33.465Z,8.45
2017-04-11T05:52:42.717Z,8.55
2017-04-11T05:53:51.671Z,8.48
2017-04-11T05:55:00.623Z,8.48
2017-04-11T05:56:09.571Z,8.61
2017-04-11T05:57:18.523Z,8.58
2017-04-11T05:58:27.732Z,8.59
2017-04-11T05:59:36.776Z,8.55
2017-04-11T06:00:45.725Z,8.61
2017-04-11T06:01:54.680Z,8.56
2017-04-11T06:03:03.633Z,8.68
2017-04-11T06:04:12.830Z,8.66
2017-04-11T06:05:21.816Z,8.74
2017-04-11T06:06:30.859Z,8.74
2017-04-11T06:07:39.810Z,8.79
2017-04-11T06:08:48.811Z,8.74
2017-04-11T06:09:58.021Z,8.81
2017-04-11T06:11:07.060Z,8.83
2017-04-11T06:12:16.104Z,8.71
2017-04-11T06:13:25.203Z,8.8
2017-04-11T06:14:34.159Z,8.81
2017-04-11T06:15:43.359Z,8.73
2017-04-11T06:16:52.312Z,8.89
2017-04-11T06:18:01.265Z,8.91
2017-04-11T06:19:10.315Z,8.94
2017-04-11T06:20:19.279Z,8.98
2017-04-11T06:21:28.486Z,9.11
2017-04-11T06:22:37.441Z,9.05
2017-04-11T06:23:46.398Z,9.04
2017-04-11T06:24:55.358Z,9.1
2017-04-11T06:26:04.312Z,9.23
2017-04-11T06:27:13.516Z,9.14
2017-04-11T06:28:22.533Z,9.15
2017-04-11T06:29:31.572Z,9.08
2017-04-11T06:30:40.528Z,9.14
2017-04-11T06:31:49.480Z,9.18
2017-04-11T06:32:58.682Z,9.15
2017-04-11T06:34:07.639Z,9.15
2017-04-11T06:35:16.600Z,9.23
2017-04-11T06:36:25.676Z,9.31
2017-04-11T06:37:34.630Z,9.29
2017-04-11T06:38:43.883Z,9.23
2017-04-11T06:39:52.841Z,9.21
2017-04-11T06:41:01.796Z,9.21
2017-04-11T06:42:10.838Z,9.13
2017-04-11T06:43:19.792Z,9.08
2017-04-11T06:44:29.125Z,9.1
2017-04-11T06:45:38.079Z,9.1
2017-04-11T06:46:47.027Z,9.04
2017-04-11T06:47:55.987Z,9.08
2017-04-11T06:49:04.948Z,8.95
2017-04-11T06:50:14.531Z,8.99
2017-04-11T06:51:23.480Z,8.99
2017-04-11T06:52:32.520Z,9.05
2017-04-11T06:53:41.476Z,9.11
2017-04-11T06:54:50.426Z,9.24
2017-04-11T06:55:59.679Z,9.21
2017-04-11T06:57:08.633Z,9.23
2017-04-11T06:58:17.591Z,9.36
2017-04-11T06:59:26.545Z,9.29
2017-04-11T07:00:35.502Z,9.33
2017-04-11T07:01:44.848Z,9.26
2017-04-11T07:02:53.912Z,9.21
2017-04-11T07:04:02.866Z,9.29
2017-04-11T07:05:11.822Z,9.39
2017-04-11T07:06:20.927Z,9.39
2017-04-11T07:07:30.245Z,9.38
2017-04-11T07:08:39.207Z,9.39
2017-04-11T07:09:48.343Z,9.56
2017-04-11T07:10:57.411Z,9.54
2017-04-11T07:12:06.364Z,9.65
2017-04-11T07:13:15.564Z,9.72
2017-04-11T07:14:24.515Z,9.66
2017-04-11T07:15:33.719Z,9.78
2017-04-11T07:16:42.698Z,9.72
2017-04-11T07:17:51.662Z,9.76
2017-04-11T07:19:00.861Z,9.68
2017-04-11T07:20:10.724Z,9.69
2017-04-11T07:21:19.674Z,9.65
2017-04-11T07:22:28.628Z,9.61
2017-04-11T07:23:37.586Z,9.61
2017-04-11T07:24:46.791Z,9.54
2017-04-11T07:25:55.747Z,9.56
2017-04-11T07:27:08.906Z,9.46
2017-04-11T07:28:31.362Z,9.39
2017-04-11T07:29:54.863Z,9.32
2017-04-11T07:31:09.825Z,9.33
2017-04-11T07:32:18.776Z,9.31
2017-04-11T07:33:27.818Z,9.15
2017-04-11T07:34:36.770Z,9.17
2017-04-11T07:35:45.974Z,9.17
2017-04-11T07:36:55.229Z,9.14
2017-04-11T07:38:04.530Z,9.13
2017-04-11T07:39:13.692Z,9.04
2017-04-11T07:40:22.848Z,8.96
2017-04-11T07:41:32.149Z,8.91
2017-04-11T07:42:41.280Z,8.79
2017-04-11T07:43:50.335Z,8.74
2017-04-11T07:44:59.333Z,8.71
2017-04-11T07:46:08.373Z,8.7
2017-04-11T07:47:17.578Z,8.68
2017-04-11T07:48:26.538Z,8.65
2017-04-11T07:49:35.493Z,8.63
2017-04-11T07:50:44.530Z,8.63
2017-04-11T07:51:53.484Z,8.55
2017-04-11T07:53:02.689Z,8.47
2017-04-11T07:54:11.646Z,8.41
2017-04-11T07:55:20.602Z,8.45
2017-04-11T07:56:29.561Z,8.36
2017-04-11T07:57:38.509Z,8.47
2017-04-11T07:58:47.768Z,8.45
2017-04-11T07:59:56.808Z,8.53
2017-04-11T08:01:05.763Z,8.48
2017-04-11T08:02:14.714Z,8.61
2017-04-11T08:03:23.673Z,8.62
2017-04-11T08:04:33.253Z,8.59
2017-04-11T08:05:42.202Z,8.61
2017-04-11T08:06:51.252Z,8.5
2017-04-11T08:08:00.203Z,8.55
2017-04-11T08:09:09.158Z,8.48
2017-04-11T08:10:18.412Z,8.56
2017-04-11T08:11:27.364Z,8.48
2017-04-11T08:12:36.320Z,8.5
2017-04-11T08:13:45.274Z,8.55
2017-04-11T08:14:54.221Z,8.5
2017-04-11T08:16:03.431Z,8.43
2017-04-11T08:17:12.391Z,8.45
2017-04-11T08:18:21.341Z,8.43
2017-04-11T08:19:30.291Z,8.44
2017-04-11T08:20:39.246Z,8.45
2017-04-11T08:21:48.444Z,8.43
2017-04-11T08:22:57.399Z,8.4
2017-04-11T08:24:06.394Z,8.41
2017-04-11T08:25:15.357Z,8.5
2017-04-11T08:26:24.398Z,8.5
2017-04-11T08:27:33.603Z,8.43
2017-04-11T08:28:42.559Z,8.36
2017-04-11T08:29:51.841Z,8.47
2017-04-11T08:31:00.791Z,8.44
2017-04-11T08:32:09.766Z,8.53
2017-04-11T08:33:19.053Z,8.48
2017-04-11T08:34:28.098Z,8.53
2017-04-11T08:35:37.057Z,8.52
2017-04-11T08:36:46.002Z,8.61
2017-04-11T08:37:54.988Z,8.59
2017-04-11T08:39:04.560Z,8.71
2017-04-11T08:40:13.802Z,8.83
2017-04-11T08:41:22.929Z,8.84
2017-04-11T08:42:31.885Z,8.89
2017-04-11T08:43:41.170Z,8.92
2017-04-11T08:44:50.421Z,8.98
2017-04-11T08:45:59.471Z,9.1
2017-04-11T08:47:08.424Z,9.18
2017-04-11T08:48:17.384Z,9.23
2017-04-11T08:49:26.346Z,9.18
2017-04-11T08:50:35.555Z,9.15
2017-04-11T08:51:44.507Z,9.35
2017-04-11T08:52:53.476Z,9.33
2017-04-11T08:54:02.427Z,9.24
2017-04-11T08:55:11.379Z,9.18
2017-04-11T08:56:20.585Z,9.2
2017-04-11T08:57:29.570Z,9.31
2017-04-11T08:58:38.528Z,9.39
2017-04-11T08:59:47.486Z,9.53
2017-04-11T09:00:56.454Z,9.65
2017-04-11T09:02:05.741Z,9.64
2017-04-11T09:03:14.698Z,9.69
2017-04-11T09:04:23.645Z,9.6
2017-04-11T09:05:32.603Z,9.64
2017-04-11T09:06:41.555Z,9.64
2017-04-11T09:07:50.852Z,9.65
2017-04-11T09:08:59.803Z,9.81
2017-04-11T09:10:08.760Z,9.87
2017-04-11T09:11:17.722Z,10.02
2017-04-11T09:12:26.680Z,10.02
2017-04-11T09:13:35.988Z,10.04
2017-04-11T09:14:44.943Z,10.08
2017-04-11T09:15:54.482Z,10.11
2017-04-11T09:17:03.436Z,10.22
2017-04-11T09:18:12.488Z,10.27
2017-04-11T09:19:21.704Z,10.32
2017-04-11T09:20:30.673Z,10.45
2017-04-11T09:21:39.987Z,10.47
2017-04-11T09:22:48.940Z,10.47
2017-04-11T09:23:57.892Z,10.51
2017-04-11T09:25:07.193Z,10.47
2017-04-11T09:26:16.230Z,10.48
2017-04-11T09:27:25.199Z,10.42
2017-04-11T09:28:34.149Z,10.42
2017-04-11T09:29:43.567Z,10.4
2017-04-11T09:30:52.848Z,10.36
2017-04-11T09:32:02.073Z,10.36
2017-04-11T09:33:11.036Z,10.33
2017-04-11T09:34:20.005Z,10.23
2017-04-11T09:35:28.964Z,10.18
2017-04-11T09:36:38.227Z,10.09
2017-04-11T09:37:47.179Z,9.91
2017-04-11T09:38:56.130Z,9.87
2017-04-11T09:40:05.112Z,9.64
2017-04-11T09:41:14.072Z,9.5
2017-04-11T09:42:23.280Z,9.51
2017-04-11T09:43:32.233Z,9.29
2017-04-11T09:44:41.278Z,9.21
2017-04-11T09:45:50.228Z,9.11
2017-04-11T09:46:59.180Z,8.99
2017-04-11T09:48:08.438Z,8.89
2017-04-11T09:49:17.395Z,8.86
2017-04-11T09:50:26.442Z,8.86
2017-04-11T09:51:35.394Z,8.83
2017-04-11T09:52:44.454Z,8.89
2017-04-11T09:53:53.661Z,8.74
2017-04-11T09:55:02.636Z,8.73
2017-04-11T09:56:11.592Z,8.83
2017-04-11T09:57:20.550Z,8.76
2017-04-11T09:58:29.504Z,8.86
2017-04-11T09:59:38.763Z,8.81
2017-04-11T10:00:47.716Z,8.87
2017-04-11T10:01:56.665Z,8.83
2017-04-11T10:03:05.740Z,8.81
2017-04-11T10:04:14.693Z,8.91
2017-04-11T10:05:24.395Z,8.92
2017-04-11T10:06:34.098Z,9.04
2017-04-11T10:07:43.057Z,9.04
2017-04-11T10:08:52.013Z,9.13
2017-04-11T10:10:00.967Z,9.31
2017-04-11T10:11:10.311Z,9.39
2017-04-11T10:12:19.363Z,9.5
2017-04-11T10:13:28.402Z,9.42
2017-04-11T10:14:37.354Z,9.51
2017-04-11T10:15:46.307Z,9.39
2017-04-11T10:16:55.508Z,9.47
2017-04-11T10:18:04.458Z,9.42
2017-04-11T10:19:13.413Z,9.35
2017-04-11T10:20:22.373Z,9.36
2017-04-11T10:21:31.325Z,9.31
2017-04-11T10:22:40.538Z,9.4
2017-04-11T10:23:49.500Z,9.47
2017-04-11T10:24:58.460Z,9.56
2017-04-11T10:26:07.502Z,9.53
2017-04-11T10:27:16.461Z,9.48
2017-04-11T10:28:25.666Z,9.54
2017-04-11T10:29:34.629Z,9.54
2017-04-11T10:30:43.904Z,9.54
2017-04-11T10:31:52.950Z,9.64
2017-04-11T10:33:01.913Z,9.61
2017-04-11T10:34:11.126Z,9.64
2017-04-11T10:35:20.075Z,9.65
2017-04-11T10:36:29.025Z,9.64
2017-04-11T10:37:37.983Z,9.6
2017-04-11T10:38:46.937Z,9.65
2017-04-11T10:39:56.140Z,9.65
2017-04-11T10:41:05.096Z,9.61
2017-04-11T10:42:14.145Z,9.6
2017-04-11T10:43:23.107Z,9.69
2017-04-11T10:44:32.069Z,9.5
2017-04-11T10:45:41.277Z,9.48
2017-04-11T10:46:50.266Z,9.46
2017-04-11T10:47:59.227Z,9.46
2017-04-11T10:49:08.512Z,9.54
2017-04-11T10:50:17.463Z,9.47
2017-04-11T10:51:26.733Z,9.54
2017-04-11T10:52:35.685Z,9.5
2017-04-11T10:53:44.726Z,9.53
2017-04-11T10:54:53.675Z,9.61
2017-04-11T10:56:02.627Z,9.61
2017-04-11T10:57:11.887Z,9.65
2017-04-11T10:58:20.840Z,9.68
2017-04-11T10:59:29.880Z,9.83
2017-04-11T11:00:38.846Z,9.83
2017-04-11T11:01:48.122Z,9.75
2017-04-11T11:02:57.331Z,9.83
2017-04-11T11:04:06.282Z,10.01
2017-04-11T11:05:15.233Z,10.02
2017-04-11T11:06:24.271Z,10.15
2017-04-11T11:07:33.219Z,10.18
2017-04-11T11:08:42.474Z,10.14
2017-04-11T11:09:51.429Z,10.18
2017-04-11T11:11:00.384Z,10.08
2017-04-11T11:12:09.342Z,10.09
2017-04-11T11:13:18.297Z,10.02
2017-04-11T11:14:27.553Z,9.9
2017-04-11T11:15:36.507Z,9.86
2017-04-11T11:16:45.464Z,9.86
2017-04-11T11:17:54.436Z,9.84
2017-04-11T11:19:03.416Z,9.87
2017-04-11T11:20:12.627Z,9.9
2017-04-11T11:21:21.586Z,9.83
2017-04-11T11:22:30.542Z,10.05
2017-04-11T11:23:39.500Z,10.17
2017-04-11T11:24:48.458Z,10.29
2017-04-11T11:25:57.709Z,10.42
2017-04-11T11:27:06.662Z,10.52
2017-04-11T11:28:15.705Z,10.52
2017-04-11T11:29:24.656Z,10.55
2017-04-11T11:30:33.611Z,10.61
2017-04-11T11:31:42.900Z,10.48
2017-04-11T11:32:51.858Z,10.59
2017-04-11T11:34:00.832Z,10.45
2017-04-11T11:35:09.790Z,10.18
2017-04-11T11:36:18.746Z,10.15
2017-04-11T11:37:28.006Z,10.08
2017-04-11T11:38:36.959Z,9.99
2017-04-11T11:39:45.916Z,10.01
2017-04-11T11:40:54.887Z,10.02
2017-04-11T11:42:04.342Z,9.97
2017-04-11T11:43:13.640Z,9.9
2017-04-11T11:44:22.924Z,9.84
2017-04-11T11:45:31.888Z,9.89
2017-04-11T11:46:40.843Z,9.87
2017-04-11T11:47:49.804Z,9.94
2017-04-11T11:48:59.056Z,9.89
2017-04-11T11:50:08.341Z,9.89
2017-04-11T11:51:17.303Z,9.89
2017-04-11T11:52:26.272Z,10.01
2017-04-11T11:53:35.223Z,9.91
2017-04-11T11:54:44.514Z,9.96
2017-04-11T11:55:53.466Z,10.02
2017-04-11T11:57:02.418Z,9.96
2017-04-11T11:58:11.370Z,9.97
2017-04-11T11:59:20.415Z,9.99
2017-04-11T12:00:29.753Z,9.93
2017-04-11T12:01:38.794Z,10.02
2017-04-11T12:02:47.750Z,10.17
2017-04-11T12:03:57.036Z,10.18
2017-04-11T12:05:05.994Z,10.2
2017-04-11T12:06:15.197Z,10.26
2017-04-11T12:07:24.149Z,10.18
2017-04-11T12:08:33.101Z,10.12
2017-04-11T12:09:42.058Z,10.08
2017-04-11T12:10:51.021Z,10.11
2017-04-11T12:12:00.226Z,10.08
2017-04-11T12:13:09.179Z,10.01
2017-04-11T12:14:18.139Z,9.99
2017-04-11T12:15:27.099Z,10.01
2017-04-11T12:16:36.051Z,9.86
2017-04-11T12:17:45.305Z,9.84
2017-04-11T12:18:54.265Z,9.79
2017-04-11T12:20:03.217Z,9.78
2017-04-11T12:21:12.271Z,9.61
2017-04-11T12:22:21.226Z,9.66
2017-04-11T12:23:30.429Z,9.51
2017-04-11T12:24:39.487Z,9.51
2017-04-11T12:25:48.442Z,9.61
2017-04-11T12:26:57.391Z,9.65
2017-04-11T12:28:06.347Z,9.66
2017-04-11T12:29:15.550Z,9.79
2017-04-11T12:30:24.524Z,9.87
2017-04-11T12:31:33.475Z,9.79
2017-04-11T12:32:42.426Z,9.96
2017-04-11T12:33:51.387Z,10.01
2017-04-11T12:35:00.591Z,10.08
2017-04-11T12:36:09.547Z,10.22
2017-04-11T12:37:18.594Z,10.23
2017-04-11T12:38:27.555Z,10.38
2017-04-11T12:39:36.515Z,10.48
2017-04-11T12:40:45.855Z,10.41
2017-04-11T12:41:54.832Z,10.52
2017-04-11T12:43:03.794Z,10.51
2017-04-11T12:44:12.754Z,10.61
2017-04-11T12:45:21.705Z,10.61
2017-04-11T12:46:30.921Z,10.74
2017-04-11T12:47:40.065Z,10.76
2017-04-11T12:48:49.078Z,10.89
2017-04-11T12:49:58.388Z,10.97
2017-04-11T12:51:07.619Z,11.02
2017-04-11T12:52:16.933Z,11.04
2017-04-11T12:53:26.084Z,11.09
2017-04-11T12:54:35.099Z,11.02
2017-04-11T12:55:44.086Z,11.17
2017-04-11T12:56:53.288Z,11.15
2017-04-11T12:58:02.740Z,11.22
2017-04-11T12:59:11.770Z,11.43
2017-04-11T13:00:20.728Z,11.55
2017-04-11T13:01:29.728Z,11.58
2017-04-11T13:02:38.971Z,11.69
2017-04-11T13:03:48.225Z,11.65
2017-04-11T13:04:57.272Z,11.73
2017-04-11T13:06:06.611Z,11.8
2017-04-11T13:07:15.687Z,11.94
2017-04-11T13:08:24.820Z,12.12
2017-04-11T13:09:34.320Z,12.13
2017-04-11T13:10:43.642Z,12.13
2017-04-11T13:11:52.660Z,12.13
2017-04-11T13:13:01.798Z,12.21
2017-04-11T13:14:10.783Z,12.24
2017-04-11T13:15:20.201Z,12.2
2017-04-11T13:16:29.665Z,12.23
2017-04-11T13:17:38.627Z,12.34
2017-04-11T13:18:47.682Z,12.28
2017-04-11T13:19:57.020Z,12.32
2017-04-11T13:21:06.225Z,12.39
2017-04-11T13:22:15.183Z,12.29
2017-04-11T13:23:24.141Z,12.46
2017-04-11T13:24:33.511Z,12.47
2017-04-11T13:25:42.469Z,12.53
2017-04-11T13:26:51.679Z,12.57
2017-04-11T13:28:00.633Z,12.65
2017-04-11T13:29:09.682Z,12.68
2017-04-11T13:30:18.643Z,12.7
2017-04-11T13:31:27.686Z,12.57
2017-04-11T13:32:36.894Z,12.54
2017-04-11T13:33:45.941Z,12.6
2017-04-11T13:34:54.901Z,12.46
2017-04-11T13:36:04.185Z,12.42
2017-04-11T13:37:13.145Z,12.28
2017-04-11T13:38:22.403Z,12.23
2017-04-11T13:39:31.364Z,12.27
2017-04-11T13:40:40.320Z,12.34
2017-04-11T13:41:49.364Z,12.23
2017-04-11T13:42:58.322Z,12.2
2017-04-11T13:44:07.609Z,12.23
2017-04-11T13:45:16.848Z,12.32
2017-04-11T13:46:26.341Z,12.46
2017-04-11T13:47:35.521Z,12.64
2017-04-11T13:48:44.476Z,12.65
2017-04-11T13:49:53.731Z,12.86
2017-04-11T13:51:02.686Z,12.83
2017-04-11T13:52:12.495Z,12.86
2017-04-11T13:53:21.547Z,12.96
2017-04-11T13:54:30.794Z,13.1
2017-04-11T13:55:40.055Z,13.11
2017-04-11T13:56:49.096Z,13.19
2017-04-11T13:57:58.138Z,13.14
2017-04-11T13:59:07.100Z,13.19
2017-04-11T14:00:16.066Z,13.07
2017-04-11T14:01:25.269Z,12.96
2017-04-11T14:02:34.225Z,13.01
2017-04-11T14:03:43.275Z,13.04
2017-04-11T14:04:52.324Z,12.97
2017-04-11T14:06:01.280Z,12.87
2017-04-11T14:07:10.496Z,12.86
2017-04-11T14:08:19.457Z,13.1
2017-04-11T14:09:28.416Z,13.04
2017-04-11T14:10:37.375Z,13.05
2017-04-11T14:11:46.331Z,12.96
2017-04-11T14:12:55.601Z,12.89
2017-04-11T14:14:04.557Z,12.97
2017-04-11T14:15:13.598Z,13.04
2017-04-11T14:16:22.640Z,13.1
2017-04-11T14:17:31.708Z,13.14
2017-04-11T14:18:40.967Z,13.04
2017-04-11T14:19:50.000Z,12.96
2017-04-11T14:20:59.013Z,13
2017-04-11T14:22:07.969Z,12.97
2017-04-11T14:23:16.939Z,12.97
2017-04-11T14:24:26.181Z,13
2017-04-11T14:25:35.167Z,13.11
2017-04-11T14:26:44.240Z,13.14
2017-04-11T14:27:53.231Z,13.12
2017-04-11T14:29:02.306Z,13.17
2017-04-11T14:30:11.631Z,13.14
2017-04-11T14:31:20.609Z,13.17
2017-04-11T14:32:29.599Z,13.14
2017-04-11T14:33:38.585Z,13.2
2017-04-11T14:34:47.578Z,13.05
2017-04-11T14:35:56.816Z,13.07
2017-04-11T14:37:05.886Z,13.07
2017-04-11T14:38:14.867Z,13.1
2017-04-11T14:39:23.848Z,13.07
2017-04-11T14:40:32.824Z,12.87
2017-04-11T14:41:42.058Z,12.86
2017-04-11T14:42:51.031Z,12.86
2017-04-11T14:44:00.013Z,12.75
2017-04-11T14:45:08.996Z,12.89
2017-04-11T14:46:17.973Z,12.92
2017-04-11T14:47:27.281Z,12.95
2017-04-11T14:48:36.288Z,12.85
2017-04-11T14:49:45.280Z,12.82
2017-04-11T14:50:54.267Z,12.75
2017-04-11T14:52:03.231Z,12.7
2017-04-11T14:53:12.543Z,12.68
2017-04-11T14:54:21.589Z,12.59
2017-04-11T14:55:30.550Z,12.62
2017-04-11T14:56:39.594Z,12.68
2017-04-11T14:57:48.557Z,12.65
2017-04-11T14:58:57.772Z,12.71
2017-04-11T15:00:06.774Z,12.71
2017-04-11T15:01:15.818Z,12.7
2017-04-11T15:02:24.774Z,12.7
2017-04-11T15:03:33.735Z,12.71
2017-04-11T15:04:42.994Z,12.7
2017-04-11T15:05:51.955Z,12.59
2017-04-11T15:07:00.909Z,12.6
2017-04-11T15:08:10.188Z,12.52
2017-04-11T15:09:19.151Z,12.6
2017-04-11T15:10:28.740Z,12.47
2017-04-11T15:11:37.691Z,12.41
2017-04-11T15:12:46.651Z,12.31
2017-04-11T15:13:55.606Z,12.29
2017-04-11T15:15:04.573Z,12.17